Time;durP1;ratioP1;P1;durP2;ratioP2;P2;SDS_P1;SDS_P2;PMS_P1;PMS_P2;Temp;Humidity;BMP_temperature;BMP_pressure;BME280_temperature;BME280_humidity;BME280_pressure;Samples;Min_cycle;Max_cycle;Signal;HPM_P1;HPM_P2
2021/09/14 00:00:23;;;;;;;2.97;1.80;;;22.10;66.60;;;;;;3062437;29;20060;-87
2021/09/14 00:01:55;;;;;;;2.47;1.80;;;22.10;66.70;;;;;;3063209;29;20055;-91
2021/09/14 00:03:26;;;;;;;2.85;1.80;;;22.10;66.60;;;;;;3062509;29;20106;-88
2021/09/14 00:04:58;;;;;;;2.15;1.77;;;22.10;66.60;;;;;;3063247;29;20043;-88
2021/09/14 00:06:30;;;;;;;2.65;1.83;;;22.00;66.50;;;;;;3054309;29;20107;-88
2021/09/14 00:08:02;;;;;;;2.47;1.70;;;22.00;66.60;;;;;;3046310;29;20511;-90
2021/09/14 00:09:33;;;;;;;2.80;1.75;;;22.10;66.60;;;;;;3039274;29;20055;-88
2021/09/14 00:11:05;;;;;;;2.72;1.80;;;22.00;66.50;;;;;;3039175;29;20088;-88
2021/09/14 00:12:36;;;;;;;2.85;2.05;;;22.10;66.50;;;;;;3039873;29;20055;-88
2021/09/14 00:14:08;;;;;;;3.35;1.70;;;22.00;66.50;;;;;;3039341;29;20059;-88
2021/09/14 00:15:41;;;;;;;6.25;2.08;;;22.00;66.40;;;;;;3038801;29;20063;-87
2021/09/14 00:17:12;;;;;;;4.95;1.90;;;22.00;66.40;;;;;;3039544;29;20056;-89
2021/09/14 00:18:44;;;;;;;2.97;2.08;;;22.00;66.30;;;;;;3038893;29;20055;-88
2021/09/14 00:20:15;;;;;;;2.13;1.90;;;22.00;66.30;;;;;;3039752;29;20045;-88
2021/09/14 00:21:47;;;;;;;2.47;1.77;;;22.00;66.40;;;;;;3039275;29;20049;-88
2021/09/14 00:23:19;;;;;;;2.85;2.00;;;22.00;66.40;;;;;;3039236;29;20053;-88
2021/09/14 00:24:50;;;;;;;2.15;1.80;;;22.00;66.40;;;;;;3039731;29;20081;-91
2021/09/14 00:26:22;;;;;;;2.65;1.83;;;22.00;66.30;;;;;;3039505;29;20060;-87
2021/09/14 00:27:53;;;;;;;2.35;1.92;;;22.00;66.30;;;;;;3039608;29;20048;-88
2021/09/14 00:29:24;;;;;;;2.75;2.05;;;22.00;66.20;;;;;;3038969;29;20041;-87
2021/09/14 00:30:57;;;;;;;4.57;1.80;;;21.90;66.30;;;;;;3037887;29;20055;-88
2021/09/14 00:32:29;;;;;;;3.88;2.00;;;21.90;66.50;;;;;;3039630;29;20056;-88
2021/09/14 00:34:01;;;;;;;2.30;1.92;;;21.90;66.50;;;;;;3038945;29;20048;-88
2021/09/14 00:35:35;;;;;;;2.30;1.65;;;21.90;66.30;;;;;;3040232;29;20053;-88
2021/09/14 00:37:07;;;;;;;2.35;1.88;;;22.00;66.30;;;;;;3045270;29;20052;-88
2021/09/14 00:38:38;;;;;;;2.15;1.80;;;21.90;66.30;;;;;;3040486;29;20067;-88
2021/09/14 00:40:11;;;;;;;2.13;1.92;;;21.90;66.30;;;;;;3039480;29;20412;-87
2021/09/14 00:41:43;;;;;;;2.13;1.67;;;21.90;66.20;;;;;;3038832;29;20083;-87
2021/09/14 00:43:19;;;;;;;2.13;1.67;;;21.90;66.10;;;;;;3039525;29;20057;-88
2021/09/14 00:44:51;;;;;;;3.05;1.80;;;21.90;66.10;;;;;;3039162;29;20521;-88
2021/09/14 00:46:24;;;;;;;2.67;1.90;;;21.90;66.10;;;;;;3038710;29;20088;-88
2021/09/14 00:47:56;;;;;;;2.80;1.90;;;21.90;66.00;;;;;;3039552;29;20419;-89
2021/09/14 00:49:28;;;;;;;2.38;1.77;;;21.90;66.00;;;;;;3038875;29;20626;-88
2021/09/14 00:50:59;;;;;;;1.98;1.63;;;21.90;66.00;;;;;;3038813;29;20453;-87
2021/09/14 00:52:31;;;;;;;2.40;1.90;;;21.90;66.00;;;;;;3039565;29;20059;-87
2021/09/14 00:54:03;;;;;;;2.70;1.90;;;21.90;65.90;;;;;;3038712;29;20067;-87
2021/09/14 00:55:34;;;;;;;3.10;2.13;;;21.90;66.00;;;;;;3039276;29;20056;-88
2021/09/14 00:57:06;;;;;;;3.58;1.83;;;21.90;66.00;;;;;;3039035;29;20044;-88
2021/09/14 00:58:38;;;;;;;2.25;1.90;;;21.90;65.90;;;;;;3038438;29;20444;-88
2021/09/14 01:00:10;;;;;;;2.25;1.83;;;21.90;65.90;;;;;;3038491;29;20417;-88
2021/09/14 01:01:43;;;;;;;2.45;2.00;;;21.90;66.00;;;;;;3038805;29;20053;-88
2021/09/14 01:03:15;;;;;;;3.03;1.90;;;21.90;65.90;;;;;;3039185;29;20076;-88
2021/09/14 01:04:47;;;;;;;2.70;1.90;;;21.80;65.80;;;;;;3038758;29;20063;-88
2021/09/14 01:06:18;;;;;;;3.20;1.80;;;21.80;65.80;;;;;;3047448;29;20051;-87
2021/09/14 01:07:50;;;;;;;2.00;1.80;;;21.80;65.90;;;;;;3039237;29;20049;-88
2021/09/14 01:09:23;;;;;;;2.75;1.77;;;21.80;65.90;;;;;;3041441;29;20055;-88
2021/09/14 01:10:54;;;;;;;2.63;1.70;;;21.80;65.90;;;;;;3050320;29;20048;-88
2021/09/14 01:12:26;;;;;;;4.32;1.83;;;21.80;65.90;;;;;;3050804;29;20048;-88
2021/09/14 01:14:02;;;;;;;3.17;1.90;;;21.80;65.90;;;;;;3050137;29;20070;-88
2021/09/14 01:15:34;;;;;;;2.05;1.85;;;21.80;65.80;;;;;;3049916;29;20411;-88
2021/09/14 01:17:07;;;;;;;3.47;1.70;;;21.80;65.80;;;;;;3051030;29;20415;-88
2021/09/14 01:18:39;;;;;;;2.08;1.85;;;21.70;65.80;;;;;;3060213;29;20059;-88
2021/09/14 01:20:11;;;;;;;2.33;1.90;;;21.80;65.70;;;;;;3062396;29;20065;-88
2021/09/14 01:21:43;;;;;;;2.13;1.80;;;21.80;65.70;;;;;;3062082;29;20051;-87
2021/09/14 01:23:15;;;;;;;2.00;1.80;;;21.70;65.80;;;;;;3062499;29;20047;-88
2021/09/14 01:24:47;;;;;;;2.53;1.80;;;21.70;65.80;;;;;;3061667;29;20102;-87
2021/09/14 01:26:19;;;;;;;2.35;1.90;;;21.80;65.80;;;;;;3062217;29;20307;-88
2021/09/14 01:27:51;;;;;;;2.30;2.05;;;21.70;65.80;;;;;;3061924;29;20522;-88
2021/09/14 01:31:12;;;;;;;2.55;1.83;;;21.70;65.80;;;;;;3061119;29;20127;-88
2021/09/14 01:32:44;;;;;;;3.13;1.90;;;21.70;65.60;;;;;;3062267;29;20404;-89
2021/09/14 01:34:16;;;;;;;2.83;1.70;;;21.80;65.60;;;;;;3061829;29;20039;-88
2021/09/14 01:35:48;;;;;;;2.47;1.70;;;21.70;65.60;;;;;;3054387;29;20045;-88
2021/09/14 01:37:20;;;;;;;2.17;1.80;;;21.70;65.70;;;;;;3046266;29;20052;-87
2021/09/14 01:38:53;;;;;;;2.42;2.00;;;21.70;65.70;;;;;;3049925;29;20044;-87
2021/09/14 01:40:24;;;;;;;3.25;1.80;;;21.70;65.80;;;;;;3050880;29;20488;-89
2021/09/14 01:41:55;;;;;;;2.47;1.75;;;21.70;65.80;;;;;;3049900;29;20127;-87
2021/09/14 01:43:27;;;;;;;2.33;1.90;;;21.60;65.80;;;;;;3049973;29;20052;-88
2021/09/14 01:44:59;;;;;;;2.28;1.90;;;21.60;65.80;;;;;;3050286;29;20044;-88
2021/09/14 01:46:33;;;;;;;2.72;1.67;;;21.60;65.80;;;;;;3049599;29;20111;-88
2021/09/14 01:48:05;;;;;;;2.28;1.70;;;21.60;65.90;;;;;;3050003;29;20052;-87
2021/09/14 01:49:37;;;;;;;2.08;1.85;;;21.60;65.80;;;;;;3049960;29;20107;-88
2021/09/14 01:51:08;;;;;;;2.25;1.85;;;21.60;65.80;;;;;;3049890;29;20044;-88
2021/09/14 01:52:39;;;;;;;1.92;1.67;;;21.60;65.80;;;;;;3050550;29;20048;-88
2021/09/14 01:54:12;;;;;;;2.67;1.77;;;21.50;65.80;;;;;;3049806;29;20115;-88
2021/09/14 01:55:45;;;;;;;1.90;1.65;;;21.60;65.90;;;;;;3050362;29;20071;-87
2021/09/14 01:57:20;;;;;;;2.70;1.90;;;21.50;65.80;;;;;;3050248;29;20151;-87
2021/09/14 01:58:52;;;;;;;1.90;1.70;;;21.60;65.70;;;;;;3049829;29;20048;-89
2021/09/14 02:00:26;;;;;;;2.50;1.70;;;21.50;65.70;;;;;;3049890;29;20419;-88
2021/09/14 02:02:02;;;;;;;2.65;1.60;;;21.50;65.70;;;;;;3050162;29;20460;-87
2021/09/14 02:03:38;;;;;;;2.20;1.60;;;21.50;65.70;;;;;;3050016;29;20068;-88
2021/09/14 02:05:13;;;;;;;1.55;1.45;;;21.50;65.80;;;;;;3050353;29;20455;-88
2021/09/14 02:08:50;;;;;;;3.25;1.70;;;21.50;65.90;;;;;;3031763;29;20044;-87
2021/09/14 02:40:11;;;;;;;1.90;1.60;;;21.50;65.40;;;;;;3038112;29;20132;-89
2021/09/14 02:42:02;;;;;;;2.28;1.83;;;21.60;64.90;;;;;;3040184;29;20076;-87
2021/09/14 02:43:47;;;;;;;2.03;1.60;;;21.60;64.60;;;;;;3040181;29;20119;-88
2021/09/14 02:59:56;;;;;;;2.13;1.80;;;21.70;64.50;;;;;;3020334;29;20449;-89
2021/09/14 03:01:27;;;;;;;1.88;1.55;;;21.70;64.40;;;;;;3039059;29;20060;-88
2021/09/14 03:02:58;;;;;;;1.70;1.60;;;21.70;64.30;;;;;;3040235;29;20120;-88
2021/09/14 03:04:30;;;;;;;2.95;1.80;;;21.80;64.10;;;;;;3039739;29;20041;-87
2021/09/14 03:06:02;;;;;;;1.95;1.73;;;21.70;64.10;;;;;;3046458;29;20052;-88
2021/09/14 03:07:34;;;;;;;2.20;1.65;;;21.70;64.30;;;;;;3042712;29;20077;-88
2021/09/14 03:09:05;;;;;;;2.08;1.67;;;21.70;64.20;;;;;;3040348;29;20512;-88
2021/09/14 03:10:37;;;;;;;2.67;1.65;;;21.70;64.20;;;;;;3052098;29;20056;-88
2021/09/14 03:12:09;;;;;;;1.60;1.48;;;21.70;64.00;;;;;;3051474;29;20154;-88
2021/09/14 03:13:41;;;;;;;2.13;1.73;;;21.80;63.90;;;;;;3051341;29;20048;-87
2021/09/14 03:15:14;;;;;;;2.20;1.80;;;21.80;63.90;;;;;;3051127;29;20492;-88
2021/09/14 03:16:46;;;;;;;1.48;1.35;;;21.80;64.40;;;;;;3051919;29;20105;-88
2021/09/14 03:18:17;;;;;;;2.53;1.83;;;21.80;63.60;;;;;;3059252;29;20099;-88
2021/09/14 03:19:49;;;;;;;1.92;1.52;;;21.80;63.60;;;;;;3063272;29;20051;-88
2021/09/14 03:21:21;;;;;;;1.77;1.50;;;21.90;63.70;;;;;;3063269;29;20087;-88
2021/09/14 03:22:53;;;;;;;1.77;1.67;;;21.80;63.60;;;;;;3063741;29;20052;-88
2021/09/14 03:24:24;;;;;;;1.52;1.42;;;21.80;63.50;;;;;;3063336;29;20059;-88
2021/09/14 03:25:56;;;;;;;1.70;1.60;;;21.80;63.50;;;;;;3063447;29;20048;-88
2021/09/14 03:27:28;;;;;;;1.70;1.52;;;21.90;63.20;;;;;;3063540;29;20052;-88
2021/09/14 03:29:00;;;;;;;1.83;1.60;;;21.90;63.40;;;;;;3063206;29;20110;-89
2021/09/14 03:30:33;;;;;;;1.88;1.60;;;21.90;63.40;;;;;;3062724;29;20495;-87
2021/09/14 03:32:05;;;;;;;2.03;1.63;;;21.80;63.40;;;;;;3063004;29;20059;-88
2021/09/14 03:33:37;;;;;;;2.53;1.67;;;21.80;63.50;;;;;;3063102;29;20059;-88
2021/09/14 03:35:09;;;;;;;2.05;1.75;;;21.80;64.30;;;;;;3063610;29;20107;-88
2021/09/14 03:36:41;;;;;;;2.20;1.63;;;21.80;63.40;;;;;;3052935;29;20052;-88
2021/09/14 03:38:12;;;;;;;1.80;1.70;;;21.90;63.40;;;;;;3051643;29;20052;-88
2021/09/14 03:39:44;;;;;;;1.95;1.58;;;21.90;63.40;;;;;;3051220;29;20048;-88
2021/09/14 03:41:16;;;;;;;2.80;1.80;;;21.90;63.40;;;;;;3051337;29;20059;-87
2021/09/14 03:42:47;;;;;;;1.73;1.50;;;21.80;63.40;;;;;;3051535;29;20048;-87
2021/09/14 03:44:19;;;;;;;1.65;1.52;;;21.90;63.40;;;;;;3051342;29;20416;-88
2021/09/14 03:45:52;;;;;;;1.88;1.67;;;21.90;63.40;;;;;;3050719;29;21464;-89
2021/09/14 03:47:24;;;;;;;1.83;1.50;;;21.90;63.40;;;;;;3051730;29;20059;-88
2021/09/14 03:48:56;;;;;;;2.45;1.38;;;21.90;63.50;;;;;;3050872;29;20427;-88
2021/09/14 03:50:27;;;;;;;1.65;1.33;;;21.90;63.40;;;;;;3051618;29;20499;-88
2021/09/14 03:51:59;;;;;;;1.60;1.50;;;21.90;63.30;;;;;;3050020;29;20048;-89
2021/09/14 03:53:31;;;;;;;3.42;1.60;;;21.90;63.20;;;;;;3050927;29;20055;-87
2021/09/14 03:55:03;;;;;;;2.92;1.50;;;21.90;63.10;;;;;;3051529;29;20063;-88
2021/09/14 03:56:34;;;;;;;1.90;1.38;;;21.90;63.20;;;;;;3051497;29;20488;-87
2021/09/14 03:58:06;;;;;;;2.10;1.50;;;21.90;63.10;;;;;;3051259;29;20415;-88
2021/09/14 03:59:40;;;;;;;1.60;1.50;;;22.00;63.10;;;;;;3051047;29;20100;-88
2021/09/14 04:01:14;;;;;;;1.67;1.50;;;22.00;63.00;;;;;;3049514;29;20048;-88
2021/09/14 04:02:47;;;;;;;1.70;1.60;;;22.10;62.70;;;;;;3050869;29;20389;-88
2021/09/14 04:04:22;;;;;;;2.08;1.55;;;22.10;62.70;;;;;;3050710;29;20040;-88
2021/09/14 04:06:19;;;;;;;1.60;1.45;;;22.20;62.60;;;;;;3047041;29;20050;-89
2021/09/14 04:07:53;;;;;;;1.75;1.55;;;22.20;62.20;;;;;;3039851;29;20052;-87
2021/09/14 04:09:24;;;;;;;1.55;1.45;;;22.30;62.10;;;;;;3042226;29;20060;-89
2021/09/14 04:10:56;;;;;;;1.77;1.40;;;22.40;62.00;;;;;;3050521;29;20040;-88
2021/09/14 04:12:28;;;;;;;1.65;1.45;;;22.40;61.80;;;;;;3051503;29;20052;-87
2021/09/14 04:14:00;;;;;;;1.60;1.50;;;22.40;61.70;;;;;;3051080;29;20055;-87
2021/09/14 04:15:30;;;;;;;1.80;1.40;;;22.40;61.70;;;;;;3050646;29;20048;-89
2021/09/14 04:17:04;;;;;;;1.52;1.42;;;22.40;61.70;;;;;;3051154;29;20051;-90
2021/09/14 04:18:36;;;;;;;2.00;1.50;;;22.40;61.70;;;;;;3041043;29;20048;-88
2021/09/14 04:20:08;;;;;;;1.60;1.50;;;22.50;61.70;;;;;;3039700;29;20055;-88
2021/09/14 04:21:41;;;;;;;1.92;1.50;;;22.50;61.50;;;;;;3039091;29;20052;-87
2021/09/14 04:23:11;;;;;;;1.70;1.55;;;22.60;61.50;;;;;;3039556;29;20626;-87
2021/09/14 04:24:43;;;;;;;1.80;1.50;;;22.60;61.30;;;;;;3038996;29;20059;-88
2021/09/14 04:26:15;;;;;;;1.40;1.30;;;22.60;61.40;;;;;;3039377;29;20060;-89
2021/09/14 04:27:46;;;;;;;1.98;1.40;;;22.60;61.20;;;;;;3039517;29;20057;-88
2021/09/14 04:29:17;;;;;;;2.17;1.52;;;22.60;61.10;;;;;;3038939;29;20044;-88
2021/09/14 04:30:49;;;;;;;1.40;1.30;;;22.70;61.20;;;;;;3038500;29;20052;-88
2021/09/14 04:32:22;;;;;;;2.00;1.48;;;22.60;61.10;;;;;;3038931;29;20049;-89
2021/09/14 04:33:54;;;;;;;2.15;1.50;;;22.70;61.00;;;;;;3038882;29;20465;-88
2021/09/14 04:35:26;;;;;;;1.67;1.58;;;22.70;61.00;;;;;;3040068;29;20063;-87
2021/09/14 04:36:57;;;;;;;1.70;1.50;;;22.60;61.10;;;;;;3050991;29;20071;-88
2021/09/14 04:38:29;;;;;;;1.90;1.48;;;22.70;61.00;;;;;;3041661;29;20052;-87
2021/09/14 04:40:01;;;;;;;1.85;1.50;;;22.70;60.90;;;;;;3039084;29;20053;-88
2021/09/14 04:41:33;;;;;;;2.40;1.60;;;22.70;61.00;;;;;;3039029;29;20053;-88
2021/09/14 04:43:04;;;;;;;2.03;1.50;;;22.70;61.10;;;;;;3039400;29;20381;-87
2021/09/14 04:44:36;;;;;;;1.63;1.52;;;22.70;61.10;;;;;;3039033;29;20060;-88
2021/09/14 04:46:08;;;;;;;2.33;1.40;;;22.70;60.90;;;;;;3038246;29;20535;-90
2021/09/14 04:47:41;;;;;;;2.10;1.67;;;22.70;60.80;;;;;;3039630;29;20056;-87
2021/09/14 04:49:12;;;;;;;1.65;1.50;;;22.70;61.10;;;;;;3038737;29;20389;-88
2021/09/14 04:50:44;;;;;;;1.60;1.38;;;22.70;61.00;;;;;;3039308;29;20489;-90
2021/09/14 04:52:16;;;;;;;1.23;1.13;;;22.70;61.00;;;;;;3038929;29;20461;-87
2021/09/14 04:53:48;;;;;;;1.55;1.38;;;22.70;61.00;;;;;;3038947;29;20633;-87
2021/09/14 04:55:20;;;;;;;1.60;1.50;;;22.70;61.00;;;;;;3039278;29;20052;-87
2021/09/14 04:56:51;;;;;;;2.05;1.60;;;22.70;61.00;;;;;;3039230;29;20052;-88
2021/09/14 04:58:23;;;;;;;1.65;1.55;;;22.80;60.90;;;;;;3038647;29;20052;-87
2021/09/14 04:59:55;;;;;;;1.50;1.33;;;22.70;61.00;;;;;;3039485;29;20493;-88
2021/09/14 05:01:26;;;;;;;2.25;1.58;;;22.70;61.20;;;;;;3037848;29;20060;-88
2021/09/14 05:03:00;;;;;;;1.80;1.50;;;22.70;60.90;;;;;;3039875;29;20104;-89
2021/09/14 05:04:31;;;;;;;1.92;1.60;;;22.70;60.80;;;;;;3038634;29;20048;-89
2021/09/14 05:06:03;;;;;;;6.22;1.63;;;22.70;60.90;;;;;;3039911;29;20053;-88
2021/09/14 05:07:35;;;;;;;4.65;1.50;;;22.70;61.20;;;;;;3038607;29;20547;-88
2021/09/14 05:09:06;;;;;;;3.25;1.67;;;22.70;61.80;;;;;;3043433;29;20048;-88
2021/09/14 05:10:38;;;;;;;6.65;1.60;;;22.70;61.80;;;;;;3046672;29;20104;-89
2021/09/14 05:12:10;;;;;;;4.30;1.63;;;22.70;61.90;;;;;;3041722;29;20048;-88
2021/09/14 05:13:42;;;;;;;6.40;1.67;;;22.70;62.10;;;;;;3050480;29;20503;-88
2021/09/14 05:15:13;;;;;;;4.43;1.30;;;22.70;61.90;;;;;;3050009;29;20067;-88
2021/09/14 05:16:45;;;;;;;11.07;1.92;;;22.70;61.70;;;;;;3051086;29;20064;-88
2021/09/14 05:18:19;;;;;;;5.30;2.23;;;22.80;61.90;;;;;;3043232;29;20112;-88
2021/09/14 05:19:51;;;;;;;7.15;1.90;;;22.80;62.50;;;;;;3038818;29;20765;-88
2021/09/14 05:21:23;;;;;;;5.30;1.58;;;22.80;61.90;;;;;;3038853;29;20493;-88
2021/09/14 05:23:10;;;;;;;4.88;1.75;;;22.80;61.80;;;;;;3039276;29;20147;-89
2021/09/14 05:24:42;;;;;;;8.73;1.90;;;22.80;61.40;;;;;;3038773;29;20440;-87
2021/09/14 05:26:14;;;;;;;11.07;1.90;;;22.80;61.40;;;;;;3039127;29;20052;-88
2021/09/14 05:27:45;;;;;;;10.27;2.08;;;22.80;61.70;;;;;;3040122;29;20405;-88
2021/09/14 05:29:16;;;;;;;8.57;1.80;;;22.80;61.90;;;;;;3039338;29;20084;-86
2021/09/14 05:30:48;;;;;;;9.00;1.90;;;22.90;61.90;;;;;;3038749;29;20178;-86
2021/09/14 05:32:20;;;;;;;9.65;2.08;;;22.90;61.80;;;;;;3049691;29;20063;-86
2021/09/14 05:33:53;;;;;;;8.13;1.88;;;22.90;61.90;;;;;;3051617;29;20059;-85
2021/09/14 05:35:26;;;;;;;8.85;1.73;;;22.80;61.90;;;;;;3051356;29;20059;-86
2021/09/14 05:36:58;;;;;;;9.20;2.30;;;22.80;61.90;;;;;;3051056;29;20515;-86
2021/09/14 05:38:30;;;;;;;7.22;1.95;;;22.80;62.00;;;;;;3045399;29;20504;-87
2021/09/14 05:40:01;;;;;;;7.68;2.05;;;22.90;62.10;;;;;;3040025;29;20117;-86
2021/09/14 05:41:32;;;;;;;6.20;2.00;;;22.90;62.30;;;;;;3039494;29;20051;-86
2021/09/14 05:43:04;;;;;;;13.35;1.73;;;22.90;62.10;;;;;;3039558;29;20048;-87
2021/09/14 05:44:36;;;;;;;14.47;2.10;;;23.00;62.00;;;;;;3038917;29;20060;-86
2021/09/14 05:46:08;;;;;;;7.28;1.80;;;23.00;62.00;;;;;;3042390;29;20048;-86
2021/09/14 05:47:39;;;;;;;9.57;1.95;;;23.00;62.00;;;;;;3050383;29;20522;-86
2021/09/14 05:49:12;;;;;;;8.13;2.13;;;23.10;62.00;;;;;;3051147;29;20052;-86
2021/09/14 05:50:44;;;;;;;6.22;1.85;;;23.10;61.80;;;;;;3051435;29;20106;-85
2021/09/14 05:52:16;;;;;;;6.85;1.58;;;23.20;61.70;;;;;;3051537;29;20052;-87
2021/09/14 05:53:48;;;;;;;8.63;2.15;;;23.20;62.10;;;;;;3050699;29;20044;-86
2021/09/14 05:55:20;;;;;;;11.15;1.98;;;23.30;61.80;;;;;;3051531;29;20044;-85
2021/09/14 05:56:51;;;;;;;18.20;2.45;;;23.30;61.80;;;;;;3050876;29;20107;-86
2021/09/14 05:58:23;;;;;;;5.35;1.85;;;23.30;61.80;;;;;;3051162;29;20086;-87
2021/09/14 05:59:55;;;;;;;14.25;2.03;;;23.40;61.90;;;;;;3039052;29;20052;-86
2021/09/14 06:01:27;;;;;;;10.27;2.05;;;23.40;61.90;;;;;;3038009;29;20108;-86
2021/09/14 06:02:59;;;;;;;6.63;2.22;;;23.40;61.90;;;;;;3039438;29;20073;-87
2021/09/14 06:04:32;;;;;;;14.35;1.90;;;23.40;62.00;;;;;;3039356;29;20493;-85
2021/09/14 06:06:05;;;;;;;7.20;2.20;;;23.40;62.20;;;;;;3041139;29;20436;-86
2021/09/14 06:07:37;;;;;;;11.15;2.40;;;23.40;61.50;;;;;;3047076;29;20098;-87
2021/09/14 06:09:09;;;;;;;9.18;2.30;;;23.40;61.20;;;;;;3047867;29;20052;-87
2021/09/14 06:10:41;;;;;;;9.73;2.17;;;23.30;60.70;;;;;;3048668;29;20056;-88
2021/09/14 06:12:13;;;;;;;7.13;2.40;;;23.30;60.90;;;;;;3049305;29;20056;-88
2021/09/14 06:13:44;;;;;;;14.38;2.25;;;23.20;60.70;;;;;;3048641;29;20103;-87
2021/09/14 06:15:16;;;;;;;6.40;2.05;;;23.20;60.70;;;;;;3048823;29;20051;-87
2021/09/14 06:16:48;;;;;;;3.58;2.00;;;23.30;60.50;;;;;;3049698;29;20052;-88
2021/09/14 06:18:19;;;;;;;9.13;2.42;;;23.20;60.20;;;;;;3049101;29;20488;-88
2021/09/14 06:19:52;;;;;;;7.95;1.90;;;23.20;60.10;;;;;;3049789;29;20063;-89
2021/09/14 06:21:24;;;;;;;7.85;2.20;;;23.10;60.20;;;;;;3049571;29;20139;-88
2021/09/14 06:22:56;;;;;;;6.13;2.03;;;23.10;60.10;;;;;;3050650;29;20056;-86
2021/09/14 06:24:28;;;;;;;10.32;2.10;;;23.10;60.20;;;;;;3050284;29;20059;-86
2021/09/14 06:25:59;;;;;;;6.53;2.08;;;23.10;60.20;;;;;;3055957;29;20047;-86
2021/09/14 06:27:31;;;;;;;11.98;2.45;;;23.20;60.40;;;;;;3052545;29;20107;-87
2021/09/14 06:29:03;;;;;;;10.30;2.38;;;23.10;60.40;;;;;;3055633;29;20083;-86
2021/09/14 06:30:35;;;;;;;6.47;1.90;;;23.20;60.50;;;;;;3053719;29;20064;-85
2021/09/14 06:32:08;;;;;;;8.95;1.85;;;23.20;60.50;;;;;;3061506;29;20063;-88
2021/09/14 06:33:39;;;;;;;11.65;2.55;;;23.20;60.40;;;;;;3059412;29;20050;-89
2021/09/14 06:35:12;;;;;;;19.30;2.47;;;23.20;61.00;;;;;;3053821;29;20054;-88
2021/09/14 06:36:44;;;;;;;9.52;2.15;;;23.30;60.80;;;;;;3059727;29;20082;-88
2021/09/14 06:38:16;;;;;;;10.50;1.83;;;23.30;60.80;;;;;;3062238;29;20259;-87
2021/09/14 06:39:48;;;;;;;9.82;2.20;;;23.30;60.60;;;;;;3061475;29;20052;-87
2021/09/14 06:41:21;;;;;;;13.70;2.40;;;23.30;60.70;;;;;;3059406;29;20423;-86
2021/09/14 06:42:53;;;;;;;10.43;2.03;;;23.40;60.80;;;;;;3054848;29;20400;-86
2021/09/14 06:44:24;;;;;;;9.57;2.25;;;23.40;60.50;;;;;;3056637;29;20051;-87
2021/09/14 06:45:56;;;;;;;13.57;2.55;;;23.40;60.50;;;;;;3042845;29;20504;-87
2021/09/14 06:47:28;;;;;;;12.15;2.17;;;23.40;60.50;;;;;;3041875;29;20052;-88
2021/09/14 06:49:00;;;;;;;10.30;2.20;;;23.40;60.40;;;;;;3049410;29;20575;-88
2021/09/14 06:50:35;;;;;;;16.55;1.95;;;23.40;60.60;;;;;;3050490;29;20154;-87
2021/09/14 06:52:08;;;;;;;10.23;2.25;;;23.50;60.90;;;;;;3049456;29;20055;-89
2021/09/14 06:53:39;;;;;;;14.52;2.70;;;23.50;60.70;;;;;;3048784;29;20044;-91
2021/09/14 06:55:11;;;;;;;12.63;3.05;;;23.50;61.60;;;;;;3049841;29;20048;-89
2021/09/14 06:56:43;;;;;;;13.27;2.38;;;23.50;61.40;;;;;;3048723;29;20056;-89
2021/09/14 06:58:15;;;;;;;13.93;2.65;;;23.50;61.80;;;;;;3049383;29;20044;-89
2021/09/14 06:59:46;;;;;;;15.88;2.58;;;23.50;62.30;;;;;;3048605;29;20047;-87
2021/09/14 07:01:18;;;;;;;21.13;2.72;;;23.50;62.30;;;;;;3039044;29;20683;-89
2021/09/14 07:02:51;;;;;;;12.15;2.42;;;23.50;62.30;;;;;;3041435;29;20086;-88
2021/09/14 07:04:23;;;;;;;17.48;2.55;;;23.50;62.30;;;;;;3048349;29;20055;-88
2021/09/14 07:05:56;;;;;;;17.00;2.60;;;23.50;62.20;;;;;;3050230;29;20056;-86
2021/09/14 07:07:27;;;;;;;10.48;2.70;;;23.50;62.30;;;;;;3051434;29;20048;-87
2021/09/14 07:08:59;;;;;;;12.52;2.22;;;23.50;62.30;;;;;;3051155;29;20099;-86
2021/09/14 07:10:31;;;;;;;8.35;2.40;;;23.50;62.30;;;;;;3052544;29;20043;-87
2021/09/14 07:12:05;;;;;;;9.45;2.20;;;23.50;62.10;;;;;;3055043;29;20519;-85
2021/09/14 07:13:36;;;;;;;10.05;2.30;;;23.50;62.00;;;;;;3062676;29;20058;-87
2021/09/14 07:15:09;;;;;;;14.10;2.35;;;23.50;62.30;;;;;;3058862;29;20055;-87
2021/09/14 07:16:40;;;;;;;8.70;2.33;;;23.50;62.50;;;;;;3051730;29;20060;-86
2021/09/14 07:18:12;;;;;;;7.40;2.35;;;23.50;62.40;;;;;;3051849;29;20056;-87
2021/09/14 07:19:44;;;;;;;14.43;2.38;;;23.50;62.30;;;;;;3051719;29;20523;-86
2021/09/14 07:21:17;;;;;;;14.30;2.40;;;23.50;62.30;;;;;;3050723;29;20052;-87
2021/09/14 07:22:49;;;;;;;8.00;2.30;;;23.50;62.30;;;;;;3051182;29;20365;-87
2021/09/14 07:24:20;;;;;;;8.80;2.67;;;23.50;62.30;;;;;;3050347;29;20183;-87
2021/09/14 07:25:52;;;;;;;13.38;2.47;;;23.50;62.30;;;;;;3051089;29;20055;-87
2021/09/14 07:27:24;;;;;;;7.60;2.10;;;23.50;62.30;;;;;;3051561;29;20056;-86
2021/09/14 07:28:56;;;;;;;6.55;2.20;;;23.50;62.30;;;;;;3052749;29;20052;-86
2021/09/14 07:30:27;;;;;;;9.85;2.05;;;23.50;62.20;;;;;;3052322;29;20052;-88
2021/09/14 07:31:59;;;;;;;14.35;2.47;;;23.50;62.30;;;;;;3052662;29;20060;-88
2021/09/14 07:33:31;;;;;;;8.00;2.42;;;23.60;62.40;;;;;;3051586;29;20048;-88
2021/09/14 07:35:03;;;;;;;12.98;2.10;;;23.60;62.60;;;;;;3049848;29;20112;-87
2021/09/14 07:36:36;;;;;;;7.25;2.10;;;23.60;62.60;;;;;;3059458;29;20063;-87
2021/09/14 07:38:08;;;;;;;8.20;2.28;;;23.50;62.80;;;;;;3063139;29;20055;-87
2021/09/14 07:39:40;;;;;;;8.75;2.38;;;23.50;62.70;;;;;;3060021;29;20510;-84
2021/09/14 07:41:12;;;;;;;14.68;2.50;;;23.50;62.70;;;;;;3058541;29;20419;-86
2021/09/14 07:42:43;;;;;;;18.85;2.45;;;23.50;62.80;;;;;;3062007;29;20056;-86
2021/09/14 07:44:15;;;;;;;12.25;2.45;;;23.50;63.10;;;;;;3057416;29;20048;-87
2021/09/14 07:45:47;;;;;;;11.95;2.22;;;23.50;63.20;;;;;;3058903;29;20054;-87
2021/09/14 07:47:19;;;;;;;20.55;2.42;;;23.50;63.30;;;;;;3056834;29;20051;-85
2021/09/14 07:48:50;;;;;;;6.90;2.03;;;23.50;63.20;;;;;;3059280;29;20048;-85
2021/09/14 07:50:22;;;;;;;12.38;2.42;;;23.50;63.40;;;;;;3055615;29;20084;-89
2021/09/14 07:51:55;;;;;;;10.00;2.30;;;23.50;63.50;;;;;;3051070;29;20063;-88
2021/09/14 07:53:27;;;;;;;11.20;2.17;;;23.50;63.60;;;;;;3051502;29;20052;-88
2021/09/14 07:54:59;;;;;;;13.52;2.20;;;23.50;64.10;;;;;;3057956;29;20512;-87
2021/09/14 07:56:30;;;;;;;10.55;2.60;;;23.50;63.80;;;;;;3054946;29;20040;-89
2021/09/14 07:58:02;;;;;;;8.05;2.30;;;23.50;63.80;;;;;;3063301;29;20047;-88
2021/09/14 07:59:35;;;;;;;10.07;2.35;;;23.60;64.10;;;;;;3063144;29;20053;-88
2021/09/14 08:01:07;;;;;;;33.03;3.20;;;23.50;64.00;;;;;;3061912;29;20131;-87
2021/09/14 08:02:38;;;;;;;8.60;2.47;;;23.50;64.30;;;;;;3062495;29;20060;-89
2021/09/14 08:04:10;;;;;;;13.57;2.42;;;23.60;64.10;;;;;;3061312;29;20562;-88
2021/09/14 08:05:42;;;;;;;8.52;2.00;;;23.60;64.20;;;;;;3052868;29;20083;-86
2021/09/14 08:07:15;;;;;;;13.00;2.55;;;23.60;64.40;;;;;;3044065;29;20067;-87
2021/09/14 08:08:47;;;;;;;8.50;2.47;;;23.60;64.40;;;;;;3061363;29;20044;-86
2021/09/14 08:10:19;;;;;;;7.05;2.10;;;23.60;64.40;;;;;;3050068;29;20056;-87
2021/09/14 08:11:51;;;;;;;13.98;2.38;;;23.70;64.40;;;;;;3051769;29;20138;-87
2021/09/14 08:13:24;;;;;;;7.63;2.20;;;23.70;64.30;;;;;;3055553;29;20055;-88
2021/09/14 08:14:55;;;;;;;;;;;23.60;64.30;;;;;;3059257;29;20075;-86
2021/09/14 08:16:27;;;;;;;11.48;2.50;;;23.70;64.40;;;;;;3058941;29;19937;-87
2021/09/14 08:18:00;;;;;;;11.05;2.38;;;23.70;64.30;;;;;;3055772;29;20055;-88
2021/09/14 08:19:32;;;;;;;16.38;2.65;;;23.70;64.50;;;;;;3041729;29;20049;-87
2021/09/14 08:21:03;;;;;;;11.55;2.15;;;23.60;64.30;;;;;;3050318;29;20054;-89
2021/09/14 08:22:36;;;;;;;8.18;2.15;;;23.70;64.50;;;;;;3053293;29;20060;-84
2021/09/14 08:24:11;;;;;;;9.05;2.38;;;23.70;64.30;;;;;;3051731;29;20053;-85
2021/09/14 08:25:43;;;;;;;6.47;2.10;;;23.60;64.30;;;;;;3052333;29;20400;-85
2021/09/14 08:27:14;;;;;;;9.20;2.40;;;23.60;64.40;;;;;;3052146;29;20063;-86
2021/09/14 08:28:46;;;;;;;4.97;2.35;;;23.60;65.00;;;;;;3051698;29;20063;-86
2021/09/14 08:30:18;;;;;;;12.32;2.22;;;23.60;64.20;;;;;;3049934;29;20436;-86
2021/09/14 08:31:50;;;;;;;11.73;2.60;;;23.60;64.30;;;;;;3046986;29;20085;-87
2021/09/14 08:33:21;;;;;;;7.35;2.42;;;23.60;64.40;;;;;;3042389;29;20112;-86
2021/09/14 08:34:53;;;;;;;11.20;2.28;;;23.60;64.40;;;;;;3040337;29;20064;-86
2021/09/14 08:36:25;;;;;;;6.03;2.45;;;23.60;64.10;;;;;;3048897;29;20044;-86
2021/09/14 08:37:58;;;;;;;6.53;2.40;;;23.60;64.10;;;;;;3050537;29;20127;-86
2021/09/14 08:39:30;;;;;;;5.10;2.00;;;23.60;64.10;;;;;;3050780;29;20138;-87
2021/09/14 08:41:02;;;;;;;14.32;2.75;;;23.50;64.30;;;;;;3049595;29;20460;-89
2021/09/14 08:42:36;;;;;;;10.45;2.40;;;23.50;64.50;;;;;;3050894;29;20169;-88
2021/09/14 08:44:08;;;;;;;10.02;2.30;;;23.50;64.60;;;;;;3050639;29;20052;-88
2021/09/14 08:45:39;;;;;;;15.45;2.33;;;23.50;64.60;;;;;;3049989;29;20059;-88
2021/09/14 08:47:11;;;;;;;6.30;2.30;;;23.50;65.00;;;;;;3051177;29;20048;-86